Time;durP1;ratioP1;P1;durP2;ratioP2;P2;SDS_P1;SDS_P2;PMS_P1;PMS_P2;Temp;Humidity;BMP_temperature;BMP_pressure;BME280_temperature;BME280_humidity;BME280_pressure;Samples;Min_cycle;Max_cycle;Signal;HPM_P1;HPM_P2
2021/07/31 00:01:21;;;;;;;18.80;10.50;;;;;;;;;;143731;572;46020;-53
2021/07/31 00:03:48;;;;;;;24.77;10.55;;;;;;;;;;143729;578;46021;-54
2021/07/31 00:06:15;;;;;;;23.12;9.55;;;;;;;;;;143728;583;46010;-54
2021/07/31 00:08:42;;;;;;;19.27;9.77;;;;;;;;;;143730;575;46018;-54
2021/07/31 00:11:09;;;;;;;27.95;10.05;;;;;;;;;;143732;574;46012;-54
2021/07/31 00:13:36;;;;;;;26.05;11.05;;;;;;;;;;143729;579;46023;-54
2021/07/31 00:16:03;;;;;;;30.12;11.65;;;;;;;;;;143728;572;46010;-54
2021/07/31 00:18:30;;;;;;;22.67;10.23;;;;;;;;;;143727;578;47011;-54
2021/07/31 00:20:57;;;;;;;26.08;11.93;;;;;;;;;;143734;576;46012;-54
2021/07/31 00:23:27;;;;;;;24.73;12.30;;;;;;;;;;143727;574;46022;-54
2021/07/31 00:25:55;;;;;;;24.12;10.23;;;;;;;;;;143729;570;46011;-53
2021/07/31 00:28:25;;;;;;;18.40;9.90;;;;;;;;;;143730;600;46018;-54
2021/07/31 00:30:52;;;;;;;24.25;9.07;;;;;;;;;;143733;570;46011;-54
2021/07/31 00:33:20;;;;;;;35.42;10.80;;;;;;;;;;143731;579;46021;-54
2021/07/31 00:35:47;;;;;;;37.78;10.40;;;;;;;;;;143728;619;46021;-54
2021/07/31 00:38:14;;;;;;;28.27;10.13;;;;;;;;;;143726;580;46020;-53
2021/07/31 00:40:41;;;;;;;27.37;10.10;;;;;;;;;;143731;582;46013;-54
2021/07/31 00:43:09;;;;;;;19.52;9.48;;;;;;;;;;143729;570;46010;-54
2021/07/31 00:45:36;;;;;;;24.37;9.60;;;;;;;;;;143729;569;46010;-53
2021/07/31 00:48:05;;;;;;;25.40;9.73;;;;;;;;;;143728;637;46020;-54
2021/07/31 00:50:33;;;;;;;36.70;11.57;;;;;;;;;;143732;587;46012;-54
2021/07/31 00:53:00;;;;;;;24.30;9.27;;;;;;;;;;143730;577;46020;-54
2021/07/31 00:55:29;;;;;;;21.45;9.98;;;;;;;;;;143729;569;46010;-54
2021/07/31 00:57:58;;;;;;;21.37;9.05;;;;;;;;;;143729;609;46018;-54
2021/07/31 01:00:26;;;;;;;21.23;8.95;;;;;;;;;;143732;647;46012;-54
2021/07/31 01:02:53;;;;;;;16.60;8.98;;;;;;;;;;143729;572;47020;-54
2021/07/31 01:05:20;;;;;;;20.10;9.00;;;;;;;;;;143729;624;46010;-54
2021/07/31 01:07:47;;;;;;;25.27;9.90;;;;;;;;;;143730;592;46010;-54
2021/07/31 01:10:15;;;;;;;19.50;9.48;;;;;;;;;;143730;570;46030;-54
2021/07/31 01:12:44;;;;;;;18.77;9.75;;;;;;;;;;143726;576;46919;-54
2021/07/31 01:15:11;;;;;;;23.50;10.30;;;;;;;;;;143729;688;46010;-53
2021/07/31 01:17:38;;;;;;;22.25;9.77;;;;;;;;;;143730;587;46019;-54
2021/07/31 01:20:06;;;;;;;36.45;12.48;;;;;;;;;;143732;608;46012;-54
2021/07/31 01:22:33;;;;;;;36.13;11.10;;;;;;;;;;143726;565;47022;-53
2021/07/31 01:25:02;;;;;;;22.70;10.70;;;;;;;;;;143728;596;46020;-54
2021/07/31 01:27:29;;;;;;;18.60;9.73;;;;;;;;;;143730;569;46020;-54
2021/07/31 01:29:56;;;;;;;24.90;10.13;;;;;;;;;;143732;575;46010;-54
2021/07/31 01:32:23;;;;;;;21.10;9.30;;;;;;;;;;143726;589;47022;-54
2021/07/31 01:34:50;;;;;;;21.08;9.82;;;;;;;;;;143728;580;46021;-53
2021/07/31 01:37:17;;;;;;;22.27;9.43;;;;;;;;;;143728;589;46020;-54
2021/07/31 01:39:44;;;;;;;26.73;11.63;;;;;;;;;;143731;569;46020;-53
2021/07/31 01:42:11;;;;;;;29.15;11.90;;;;;;;;;;143730;564;46021;-54
2021/07/31 01:44:38;;;;;;;20.48;10.02;;;;;;;;;;143728;579;46010;-54
2021/07/31 01:47:05;;;;;;;16.15;10.25;;;;;;;;;;143731;596;46018;-54
2021/07/31 01:49:32;;;;;;;27.67;12.02;;;;;;;;;;143732;567;46012;-54
2021/07/31 01:51:59;;;;;;;19.37;9.43;;;;;;;;;;143729;564;46022;-54
2021/07/31 01:54:26;;;;;;;27.90;11.90;;;;;;;;;;143728;563;46010;-54
2021/07/31 01:56:53;;;;;;;26.87;10.85;;;;;;;;;;143730;634;46018;-54
2021/07/31 01:59:20;;;;;;;36.00;12.37;;;;;;;;;;143731;585;46012;-54
2021/07/31 02:01:48;;;;;;;25.52;11.00;;;;;;;;;;143728;577;46022;-54
2021/07/31 02:04:15;;;;;;;31.58;11.15;;;;;;;;;;143728;637;46010;-53
2021/07/31 02:06:42;;;;;;;22.40;10.52;;;;;;;;;;143730;617;46018;-54
2021/07/31 02:09:09;;;;;;;19.55;9.10;;;;;;;;;;143733;608;46012;-54
2021/07/31 02:11:36;;;;;;;27.62;10.23;;;;;;;;;;143729;580;46021;-54
2021/07/31 02:14:03;;;;;;;18.33;10.10;;;;;;;;;;143728;597;46020;-53
2021/07/31 02:16:30;;;;;;;24.85;10.98;;;;;;;;;;143731;613;46018;-54
2021/07/31 02:18:57;;;;;;;22.60;9.77;;;;;;;;;;143732;584;46012;-54
2021/07/31 02:21:24;;;;;;;29.05;11.88;;;;;;;;;;143729;648;46023;-54
2021/07/31 02:23:51;;;;;;;21.60;10.60;;;;;;;;;;143727;587;46010;-54
2021/07/31 02:26:19;;;;;;;31.20;10.77;;;;;;;;;;143730;571;46018;-54
2021/07/31 02:28:46;;;;;;;37.92;13.13;;;;;;;;;;143732;590;46020;-53
2021/07/31 02:31:14;;;;;;;29.02;13.10;;;;;;;;;;143729;569;47020;-54
2021/07/31 02:33:41;;;;;;;35.22;13.23;;;;;;;;;;143728;574;46021;-54
2021/07/31 02:36:08;;;;;;;27.55;11.40;;;;;;;;;;143728;564;46020;-54
2021/07/31 02:38:37;;;;;;;21.98;11.55;;;;;;;;;;143731;575;46020;-54
2021/07/31 02:41:04;;;;;;;34.72;12.90;;;;;;;;;;143729;569;46022;-54
2021/07/31 02:43:31;;;;;;;35.03;13.02;;;;;;;;;;143728;574;46010;-54
2021/07/31 02:46:08;;;;;;;42.70;12.18;;;;;;;;;;143730;638;46018;-54
2021/07/31 02:48:37;;;;;;;29.83;10.82;;;;;;;;;;143732;602;46012;-54
2021/07/31 02:51:06;;;;;;;31.35;11.82;;;;;;;;;;143730;600;46020;-54
2021/07/31 02:53:33;;;;;;;35.47;11.88;;;;;;;;;;143729;611;46010;-53
2021/07/31 02:56:00;;;;;;;34.47;11.95;;;;;;;;;;143730;564;46018;-54
2021/07/31 02:58:28;;;;;;;19.62;10.52;;;;;;;;;;143733;571;46012;-54
2021/07/31 03:00:55;;;;;;;30.37;10.57;;;;;;;;;;143730;569;46020;-54
2021/07/31 03:03:22;;;;;;;38.67;12.10;;;;;;;;;;143728;566;47010;-54
2021/07/31 03:06:01;;;;;;;28.05;11.10;;;;;;;;;;143728;606;46020;-54
2021/07/31 03:08:28;;;;;;;35.92;11.48;;;;;;;;;;143733;612;46012;-54
2021/07/31 03:11:00;;;;;;;30.98;11.93;;;;;;;;;;143730;583;46021;-54
2021/07/31 03:13:27;;;;;;;30.02;11.05;;;;;;;;;;143729;580;46033;-54
2021/07/31 03:15:54;;;;;;;32.10;11.45;;;;;;;;;;143730;609;46018;-54
2021/07/31 03:18:22;;;;;;;35.17;12.13;;;;;;;;;;143733;625;46021;-54
2021/07/31 03:20:51;;;;;;;25.30;10.48;;;;;;;;;;143727;589;47020;-54
2021/07/31 03:23:21;;;;;;;36.28;10.77;;;;;;;;;;143729;593;46010;-54
2021/07/31 03:25:48;;;;;;;34.13;11.15;;;;;;;;;;143731;600;46018;-53
2021/07/31 03:28:15;;;;;;;28.55;11.38;;;;;;;;;;143731;573;46012;-54
2021/07/31 03:30:45;;;;;;;26.05;10.63;;;;;;;;;;143729;626;46020;-54
2021/07/31 03:33:13;;;;;;;25.33;10.13;;;;;;;;;;143728;564;46021;-54
2021/07/31 03:35:41;;;;;;;22.55;9.27;;;;;;;;;;143730;583;46018;-54
2021/07/31 03:38:10;;;;;;;28.35;10.75;;;;;;;;;;143731;578;46020;-54
2021/07/31 03:40:37;;;;;;;22.92;10.65;;;;;;;;;;143729;613;46022;-54
2021/07/31 03:43:05;;;;;;;27.75;9.77;;;;;;;;;;143727;620;46020;-54
2021/07/31 03:45:32;;;;;;;30.60;11.38;;;;;;;;;;143731;594;46018;-54
2021/07/31 03:47:59;;;;;;;36.60;12.13;;;;;;;;;;143731;571;46012;-53
2021/07/31 03:50:26;;;;;;;24.58;10.65;;;;;;;;;;143729;569;46035;-54
2021/07/31 03:52:53;;;;;;;38.72;11.65;;;;;;;;;;143728;586;46010;-54
2021/07/31 03:55:21;;;;;;;28.62;10.50;;;;;;;;;;143729;596;46021;-54
2021/07/31 03:57:48;;;;;;;30.70;10.63;;;;;;;;;;143734;593;45021;-54
2021/07/31 04:00:16;;;;;;;33.35;11.63;;;;;;;;;;143729;599;47020;-54
2021/07/31 04:02:43;;;;;;;22.10;11.27;;;;;;;;;;143729;621;46010;-54
2021/07/31 04:05:10;;;;;;;41.22;12.95;;;;;;;;;;143730;566;46018;-53
2021/07/31 04:07:37;;;;;;;30.62;12.55;;;;;;;;;;143733;580;46012;-54
2021/07/31 04:10:04;;;;;;;25.35;10.95;;;;;;;;;;143730;664;46021;-54
2021/07/31 04:12:31;;;;;;;29.65;11.55;;;;;;;;;;143728;600;46010;-54
2021/07/31 04:14:59;;;;;;;35.08;11.85;;;;;;;;;;143727;569;46020;-54
2021/07/31 04:17:26;;;;;;;36.83;12.32;;;;;;;;;;143733;584;46012;-54
2021/07/31 04:19:53;;;;;;;30.10;10.00;;;;;;;;;;143730;604;46020;-54
2021/07/31 04:22:20;;;;;;;48.55;13.77;;;;;;;;;;143728;595;46020;-54
2021/07/31 04:24:47;;;;;;;39.78;15.60;;;;;;;;;;143728;705;46021;-54
2021/07/31 04:27:14;;;;;;;35.72;16.98;;;;;;;;;;143731;602;46020;-53
2021/07/31 04:29:41;;;;;;;52.30;18.37;;;;;;;;;;143730;576;46020;-53
2021/07/31 04:32:08;;;;;;;34.55;16.40;;;;;;;;;;143730;572;46010;-53
2021/07/31 04:34:35;;;;;;;35.08;15.73;;;;;;;;;;143728;604;46020;-54
2021/07/31 04:37:04;;;;;;;37.38;14.07;;;;;;;;;;143731;571;46020;-54
2021/07/31 04:39:32;;;;;;;49.88;14.18;;;;;;;;;;143730;577;46021;-54
2021/07/31 04:41:59;;;;;;;43.30;14.13;;;;;;;;;;143730;581;45916;-54
2021/07/31 04:44:26;;;;;;;39.38;15.70;;;;;;;;;;143726;583;46020;-54
2021/07/31 04:46:53;;;;;;;40.33;14.85;;;;;;;;;;143729;581;46020;-54
2021/07/31 04:49:20;;;;;;;40.10;14.82;;;;;;;;;;143728;569;46021;-54
2021/07/31 04:51:47;;;;;;;42.55;15.48;;;;;;;;;;143726;709;46020;-54
2021/07/31 04:54:15;;;;;;;43.28;14.75;;;;;;;;;;143726;607;46021;-54
2021/07/31 04:56:43;;;;;;;35.33;13.95;;;;;;;;;;143730;582;46020;-54
2021/07/31 04:59:10;;;;;;;36.03;13.38;;;;;;;;;;143726;578;46020;-54
2021/07/31 05:01:37;;;;;;;48.60;14.55;;;;;;;;;;143726;570;46020;-54
2021/07/31 05:04:04;;;;;;;51.65;13.02;;;;;;;;;;143727;605;46020;-55
2021/07/31 05:06:31;;;;;;;38.45;12.57;;;;;;;;;;143731;569;46010;-55
2021/07/31 05:08:58;;;;;;;41.83;12.35;;;;;;;;;;143729;632;46020;-55
2021/07/31 05:11:25;;;;;;;54.03;12.45;;;;;;;;;;143727;566;47010;-55
2021/07/31 05:13:52;;;;;;;36.70;13.13;;;;;;;;;;143728;564;46018;-55
2021/07/31 05:16:19;;;;;;;39.17;12.00;;;;;;;;;;143730;655;46012;-55
2021/07/31 05:18:46;;;;;;;40.92;11.55;;;;;;;;;;143727;578;46020;-55
2021/07/31 05:21:14;;;;;;;37.17;10.15;;;;;;;;;;143726;576;46020;-55
2021/07/31 05:23:42;;;;;;;24.67;10.25;;;;;;;;;;143727;597;46020;-55
2021/07/31 05:26:12;;;;;;;47.28;11.88;;;;;;;;;;143731;595;46012;-55
2021/07/31 05:28:39;;;;;;;43.92;13.52;;;;;;;;;;143727;565;46022;-55
2021/07/31 05:31:06;;;;;;;40.83;13.77;;;;;;;;;;143726;576;46020;-55
2021/07/31 05:33:33;;;;;;;34.25;11.82;;;;;;;;;;143728;574;46018;-55
2021/07/31 05:36:08;;;;;;;44.58;13.35;;;;;;;;;;143730;623;46012;-55
2021/07/31 05:38:35;;;;;;;33.60;12.13;;;;;;;;;;143729;636;46021;-56
2021/07/31 05:41:02;;;;;;;34.28;12.23;;;;;;;;;;143727;569;46010;-56
2021/07/31 05:43:29;;;;;;;45.67;12.77;;;;;;;;;;143728;565;46018;-57
2021/07/31 05:45:56;;;;;;;27.25;11.25;;;;;;;;;;143730;575;46011;-57
2021/07/31 05:48:23;;;;;;;37.20;12.32;;;;;;;;;;143727;587;46023;-57
2021/07/31 05:50:50;;;;;;;51.90;14.07;;;;;;;;;;143726;612;46010;-57
2021/07/31 05:53:17;;;;;;;51.92;16.55;;;;;;;;;;143728;586;46019;-56
2021/07/31 05:55:44;;;;;;;58.08;17.25;;;;;;;;;;143729;660;46012;-56
2021/07/31 05:58:11;;;;;;;60.95;15.95;;;;;;;;;;143729;569;46020;-55
2021/07/31 06:00:38;;;;;;;45.88;13.90;;;;;;;;;;143726;604;46011;-56
2021/07/31 06:03:05;;;;;;;59.17;14.27;;;;;;;;;;143729;602;46018;-55
2021/07/31 06:05:32;;;;;;;41.15;14.00;;;;;;;;;;143729;575;46020;-55
2021/07/31 06:07:59;;;;;;;37.30;12.13;;;;;;;;;;143728;586;46021;-55
2021/07/31 06:10:26;;;;;;;38.78;11.23;;;;;;;;;;143726;603;46011;-55
2021/07/31 06:12:53;;;;;;;51.97;12.75;;;;;;;;;;143728;653;46018;-55
2021/07/31 06:15:20;;;;;;;36.70;11.98;;;;;;;;;;143732;691;46013;-54
2021/07/31 06:17:47;;;;;;;37.88;10.57;;;;;;;;;;143728;592;46021;-54
2021/07/31 06:20:15;;;;;;;31.58;10.70;;;;;;;;;;143726;632;46010;-54
2021/07/31 06:22:42;;;;;;;37.72;10.85;;;;;;;;;;143729;578;46019;-54
2021/07/31 06:25:09;;;;;;;32.03;10.73;;;;;;;;;;143730;647;46012;-54
2021/07/31 06:27:36;;;;;;;33.00;10.73;;;;;;;;;;143727;641;46020;-54
2021/07/31 06:30:03;;;;;;;32.65;10.50;;;;;;;;;;143728;608;46010;-54
2021/07/31 06:32:31;;;;;;;32.28;10.25;;;;;;;;;;143728;580;46018;-54
2021/07/31 06:34:58;;;;;;;34.75;10.43;;;;;;;;;;143730;634;46020;-54
2021/07/31 06:37:25;;;;;;;28.02;9.05;;;;;;;;;;143728;577;46021;-54
2021/07/31 06:39:52;;;;;;;28.87;8.70;;;;;;;;;;143726;589;46010;-54
2021/07/31 06:42:19;;;;;;;33.22;8.85;;;;;;;;;;143728;632;46018;-54
2021/07/31 06:44:46;;;;;;;32.88;8.73;;;;;;;;;;143731;579;46013;-54
2021/07/31 06:47:14;;;;;;;31.23;9.05;;;;;;;;;;143729;647;46047;-54
2021/07/31 06:49:41;;;;;;;36.58;10.30;;;;;;;;;;143726;581;46020;-54
2021/07/31 06:52:08;;;;;;;31.52;8.63;;;;;;;;;;143728;572;46019;-54
2021/07/31 06:54:35;;;;;;;25.88;8.15;;;;;;;;;;143730;641;46021;-54
2021/07/31 06:57:02;;;;;;;36.03;8.80;;;;;;;;;;143727;619;46022;-54
2021/07/31 06:59:29;;;;;;;26.98;8.68;;;;;;;;;;143726;578;46020;-54
2021/07/31 07:01:56;;;;;;;28.85;8.32;;;;;;;;;;143727;575;46021;-55
2021/07/31 07:04:23;;;;;;;27.10;8.50;;;;;;;;;;143728;572;46012;-54
2021/07/31 07:06:50;;;;;;;33.00;8.70;;;;;;;;;;143729;595;46020;-54
2021/07/31 07:09:17;;;;;;;31.23;8.15;;;;;;;;;;143725;602;46021;-55
2021/07/31 07:11:44;;;;;;;35.70;8.65;;;;;;;;;;143726;594;46027;-54
2021/07/31 07:14:11;;;;;;;39.50;9.55;;;;;;;;;;143730;573;46012;-54
2021/07/31 07:16:38;;;;;;;30.77;8.80;;;;;;;;;;143728;609;46021;-54
2021/07/31 07:19:05;;;;;;;23.62;8.40;;;;;;;;;;143726;577;46010;-54
2021/07/31 07:21:32;;;;;;;42.88;8.52;;;;;;;;;;143725;652;46020;-55
2021/07/31 07:23:59;;;;;;;36.28;9.55;;;;;;;;;;143729;597;46012;-54
2021/07/31 07:26:26;;;;;;;28.70;8.70;;;;;;;;;;143727;616;46022;-54
2021/07/31 07:28:53;;;;;;;24.98;8.25;;;;;;;;;;143727;593;46020;-54
2021/07/31 07:31:20;;;;;;;26.80;8.50;;;;;;;;;;143727;572;46021;-54
2021/07/31 07:33:47;;;;;;;27.77;8.77;;;;;;;;;;143729;569;46022;-54
2021/07/31 07:36:19;;;;;;;26.77;8.77;;;;;;;;;;143728;607;46020;-54
2021/07/31 07:38:46;;;;;;;31.62;8.52;;;;;;;;;;143726;599;46021;-54
2021/07/31 07:41:14;;;;;;;27.00;7.55;;;;;;;;;;143726;565;46020;-54
2021/07/31 07:43:42;;;;;;;25.70;8.00;;;;;;;;;;143730;608;46012;-54
2021/07/31 07:46:14;;;;;;;31.42;8.73;;;;;;;;;;143728;592;46021;-54
2021/07/31 07:48:41;;;;;;;39.07;8.43;;;;;;;;;;143726;646;46020;-54
2021/07/31 07:51:08;;;;;;;24.92;8.02;;;;;;;;;;143728;637;46018;-54
2021/07/31 07:53:35;;;;;;;22.75;7.57;;;;;;;;;;143730;604;46021;-55
2021/07/31 07:56:03;;;;;;;26.05;8.60;;;;;;;;;;143727;583;47020;-54
2021/07/31 07:58:30;;;;;;;30.58;8.60;;;;;;;;;;143727;586;46010;-54
2021/07/31 08:00:57;;;;;;;21.33;7.82;;;;;;;;;;143726;599;46021;-55
2021/07/31 08:03:24;;;;;;;32.08;8.90;;;;;;;;;;143728;580;46012;-55
2021/07/31 08:05:51;;;;;;;32.85;7.68;;;;;;;;;;143727;654;47020;-55
2021/07/31 08:08:18;;;;;;;19.85;7.20;;;;;;;;;;143725;567;46021;-55
2021/07/31 08:10:45;;;;;;;22.65;7.62;;;;;;;;;;143727;651;46018;-56
2021/07/31 08:13:12;;;;;;;20.98;7.62;;;;;;;;;;143730;642;46012;-55
2021/07/31 08:15:39;;;;;;;23.42;8.18;;;;;;;;;;143727;569;46022;-55
2021/07/31 08:18:06;;;;;;;25.80;7.55;;;;;;;;;;143726;632;46010;-55
2021/07/31 08:20:34;;;;;;;23.95;8.20;;;;;;;;;;143728;597;46018;-54
2021/07/31 08:23:01;;;;;;;20.88;6.95;;;;;;;;;;143730;581;46012;-55
2021/07/31 08:25:28;;;;;;;26.50;8.43;;;;;;;;;;143727;603;46023;-54
2021/07/31 08:27:56;;;;;;;25.05;7.53;;;;;;;;;;143726;593;46020;-55
2021/07/31 08:30:23;;;;;;;28.35;7.87;;;;;;;;;;143729;610;46019;-54
2021/07/31 08:32:50;;;;;;;22.92;7.75;;;;;;;;;;143731;647;46010;-54
2021/07/31 08:35:17;;;;;;;29.50;8.07;;;;;;;;;;143728;580;46020;-55
2021/07/31 08:37:44;;;;;;;31.25;9.43;;;;;;;;;;143726;584;46010;-54
2021/07/31 08:40:12;;;;;;;31.67;8.23;;;;;;;;;;143729;628;46010;-55
2021/07/31 08:42:42;;;;;;;31.10;10.60;;;;;;;;;;143730;580;46012;-54
2021/07/31 08:45:10;;;;;;;23.58;10.13;;;;;;;;;;143728;566;46021;-55
2021/07/31 08:47:38;;;;;;;25.48;8.27;;;;;;;;;;143725;865;46020;-55
2021/07/31 08:50:07;;;;;;;24.00;9.18;;;;;;;;;;143729;582;46010;-54
2021/07/31 08:52:35;;;;;;;25.05;8.77;;;;;;;;;;143730;981;46012;-55
2021/07/31 08:55:02;;;;;;;25.60;8.75;;;;;;;;;;143729;564;46023;-54
2021/07/31 08:57:29;;;;;;;25.20;8.68;;;;;;;;;;143728;846;46010;-54
2021/07/31 08:59:56;;;;;;;22.45;8.63;;;;;;;;;;143728;567;46019;-54
2021/07/31 09:02:23;;;;;;;24.98;9.77;;;;;;;;;;143730;572;46012;-54
2021/07/31 09:04:53;;;;;;;19.27;8.68;;;;;;;;;;143724;708;47020;-54
2021/07/31 09:07:21;;;;;;;28.40;9.35;;;;;;;;;;143726;695;46020;-53
2021/07/31 09:09:48;;;;;;;24.25;8.10;;;;;;;;;;143728;780;46018;-54
2021/07/31 09:12:15;;;;;;;25.75;10.05;;;;;;;;;;143732;591;46012;-54
2021/07/31 09:14:47;;;;;;;26.85;10.25;;;;;;;;;;143727;629;46022;-55
2021/07/31 09:17:26;;;;;;;29.07;9.63;;;;;;;;;;143726;591;46020;-54
2021/07/31 09:19:57;;;;;;;26.58;9.27;;;;;;;;;;143728;564;46018;-54
2021/07/31 09:22:25;;;;;;;23.10;9.30;;;;;;;;;;143729;627;46012;-54
2021/07/31 09:25:13;;;;;;;27.83;11.15;;;;;;;;;;143728;571;46020;-54
2021/07/31 09:27:40;;;;;;;27.98;9.20;;;;;;;;;;143726;576;46020;-54
2021/07/31 09:30:07;;;;;;;27.80;11.07;;;;;;;;;;143726;588;46021;-54
2021/07/31 09:32:43;;;;;;;29.55;10.73;;;;;;;;;;143731;569;46012;-54
2021/07/31 09:35:24;;;;;;;27.45;9.85;;;;;;;;;;143728;590;46012;-54
2021/07/31 09:37:53;;;;;;;32.97;9.95;;;;;;;;;;143727;612;46010;-54
2021/07/31 09:40:31;;;;;;;37.70;10.80;;;;;;;;;;143727;583;46018;-54
2021/07/31 09:43:15;;;;;;;20.48;8.60;;;;;;;;;;143730;614;46012;-55
2021/07/31 09:45:43;;;;;;;22.33;9.38;;;;;;;;;;143729;571;46021;-54
2021/07/31 09:48:11;;;;;;;26.20;9.10;;;;;;;;;;143726;574;46010;-54
2021/07/31 09:50:47;;;;;;;28.38;9.45;;;;;;;;;;143728;635;46019;-54
2021/07/31 09:53:21;;;;;;;29.17;9.57;;;;;;;;;;143729;640;46012;-54
2021/07/31 09:55:58;;;;;;;31.48;12.05;;;;;;;;;;143730;619;46020;-54
2021/07/31 09:58:27;;;;;;;22.45;11.80;;;;;;;;;;143726;603;46020;-54
2021/07/31 10:00:55;;;;;;;24.92;9.85;;;;;;;;;;143726;571;46020;-54
2021/07/31 10:03:22;;;;;;;31.58;9.38;;;;;;;;;;143731;579;46020;-54
2021/07/31 10:05:50;;;;;;;38.60;10.45;;;;;;;;;;143728;621;46020;-55
2021/07/31 10:08:17;;;;;;;29.20;10.45;;;;;;;;;;143727;582;46010;-54
2021/07/31 10:10:45;;;;;;;35.65;12.35;;;;;;;;;;143728;628;46018;-54
2021/07/31 10:13:13;;;;;;;32.83;12.25;;;;;;;;;;143729;608;46012;-54
2021/07/31 10:15:40;;;;;;;23.73;10.00;;;;;;;;;;143729;569;46020;-54
2021/07/31 10:18:11;;;;;;;27.05;10.75;;;;;;;;;;143725;614;46020;-53
2021/07/31 10:20:38;;;;;;;26.58;10.48;;;;;;;;;;143728;601;46018;-54
2021/07/31 10:23:07;;;;;;;29.67;10.50;;;;;;;;;;143729;637;46012;-54
2021/07/31 10:25:34;;;;;;;28.12;10.65;;;;;;;;;;143727;595;46020;-54
2021/07/31 10:28:24;;;;;;;31.58;13.23;;;;;;;;;;143726;572;46020;-54
2021/07/31 10:30:51;;;;;;;31.12;10.95;;;;;;;;;;143728;593;46018;-54
2021/07/31 10:33:43;;;;;;;31.73;9.75;;;;;;;;;;143731;585;46012;-54
2021/07/31 10:36:34;;;;;;;30.50;9.77;;;;;;;;;;143728;577;46021;-54
2021/07/31 10:39:46;;;;;;;25.27;9.95;;;;;;;;;;143726;592;46021;-54
2021/07/31 10:42:13;;;;;;;29.87;10.88;;;;;;;;;;143727;632;46018;-54
2021/07/31 10:45:18;;;;;;;30.48;9.63;;;;;;;;;;143729;577;47021;-54
2021/07/31 10:47:47;;;;;;;24.20;10.13;;;;;;;;;;143728;647;46020;-55
2021/07/31 10:50:43;;;;;;;27.17;11.68;;;;;;;;;;143726;565;46010;-54
2021/07/31 10:53:11;;;;;;;21.70;9.43;;;;;;;;;;143729;576;46020;-53
2021/07/31 10:56:02;;;;;;;22.65;9.38;;;;;;;;;;143729;566;46012;-53
2021/07/31 10:58:31;;;;;;;32.22;9.57;;;;;;;;;;143729;578;46021;-53
2021/07/31 11:01:20;;;;;;;28.77;8.82;;;;;;;;;;143728;577;46010;-53
2021/07/31 11:03:47;;;;;;;23.95;8.73;;;;;;;;;;143729;597;46018;-54
2021/07/31 11:06:14;;;;;;;26.37;9.68;;;;;;;;;;143731;600;46020;-52
2021/07/31 11:09:10;;;;;;;33.40;10.13;;;;;;;;;;143728;573;47020;-53
2021/07/31 11:11:37;;;;;;;29.42;8.73;;;;;;;;;;143727;594;46010;-53
2021/07/31 11:14:04;;;;;;;24.05;9.25;;;;;;;;;;143725;640;46021;-53
2021/07/31 11:16:31;;;;;;;30.65;9.77;;;;;;;;;;143729;566;46012;-53
2021/07/31 11:18:59;;;;;;;26.00;8.93;;;;;;;;;;143728;576;46020;-53
2021/07/31 11:21:34;;;;;;;22.92;8.02;;;;;;;;;;143727;593;46020;-53
2021/07/31 11:24:10;;;;;;;28.52;9.65;;;;;;;;;;143730;564;46018;-53
2021/07/31 11:26:46;;;;;;;28.62;9.20;;;;;;;;;;143730;599;46012;-52
2021/07/31 11:29:24;;;;;;;21.55;8.88;;;;;;;;;;143729;571;46021;-53
2021/07/31 11:32:18;;;;;;;26.65;9.10;;;;;;;;;;143726;570;46020;-53
2021/07/31 11:34:47;;;;;;;22.25;7.93;;;;;;;;;;143726;585;46020;-53
2021/07/31 11:37:17;;;;;;;31.75;8.50;;;;;;;;;;143731;606;46021;-53
2021/07/31 11:39:45;;;;;;;28.30;8.85;;;;;;;;;;143728;592;46022;-53
2021/07/31 11:42:23;;;;;;;30.65;8.73;;;;;;;;;;143727;582;46020;-53
2021/07/31 11:44:50;;;;;;;27.58;9.13;;;;;;;;;;143727;604;46021;-53
2021/07/31 11:47:29;;;;;;;23.20;8.27;;;;;;;;;;143732;575;46012;-53
2021/07/31 11:50:06;;;;;;;25.12;8.25;;;;;;;;;;143728;613;46022;-52
2021/07/31 11:52:33;;;;;;;24.00;8.85;;;;;;;;;;143727;606;46021;-53
2021/07/31 11:55:00;;;;;;;26.80;7.70;;;;;;;;;;143729;577;46018;-53
2021/07/31 11:57:27;;;;;;;29.08;8.50;;;;;;;;;;143731;594;46013;-53
2021/07/31 11:59:58;;;;;;;27.75;8.30;;;;;;;;;;143728;565;46023;-52
2021/07/31 12:02:37;;;;;;;22.15;8.40;;;;;;;;;;143727;641;46020;-53
2021/07/31 12:05:05;;;;;;;25.02;8.50;;;;;;;;;;143727;566;46020;-52
2021/07/31 12:07:32;;;;;;;23.30;7.82;;;;;;;;;;143731;632;46013;-52
2021/07/31 12:10:10;;;;;;;25.40;8.07;;;;;;;;;;143731;596;46020;-53
2021/07/31 12:12:40;;;;;;;28.23;8.63;;;;;;;;;;143727;571;46020;-52
2021/07/31 12:15:22;;;;;;;24.15;7.90;;;;;;;;;;143730;601;46010;-53
2021/07/31 12:18:16;;;;;;;19.67;7.60;;;;;;;;;;143729;580;46012;-53
2021/07/31 12:20:43;;;;;;;21.62;8.05;;;;;;;;;;143730;599;46021;-53
2021/07/31 12:23:13;;;;;;;24.77;7.55;;;;;;;;;;143726;564;46021;-52
2021/07/31 12:25:59;;;;;;;28.10;8.45;;;;;;;;;;143725;575;46020;-53
2021/07/31 12:28:48;;;;;;;27.50;8.45;;;;;;;;;;143732;582;46020;-53
2021/07/31 12:31:30;;;;;;;30.60;8.73;;;;;;;;;;143730;599;46020;-52
2021/07/31 12:33:59;;;;;;;24.25;7.70;;;;;;;;;;143727;607;46020;-53
2021/07/31 12:36:26;;;;;;;24.70;8.07;;;;;;;;;;143728;577;46021;-53
2021/07/31 12:38:54;;;;;;;27.00;8.23;;;;;;;;;;143729;569;46020;-53
2021/07/31 12:41:24;;;;;;;21.42;7.57;;;;;;;;;;143731;667;46020;-53
2021/07/31 12:43:52;;;;;;;25.23;8.15;;;;;;;;;;143728;614;46010;-52
2021/07/31 12:46:23;;;;;;;32.35;7.85;;;;;;;;;;143730;589;46018;-52
2021/07/31 12:48:51;;;;;;;22.62;7.57;;;;;;;;;;143729;616;46012;-52
2021/07/31 12:51:18;;;;;;;21.12;6.72;;;;;;;;;;143731;650;46020;-53
2021/07/31 12:53:45;;;;;;;23.12;7.65;;;;;;;;;;143728;582;46010;-52
2021/07/31 12:56:12;;;;;;;18.95;6.72;;;;;;;;;;143730;611;46018;-52
2021/07/31 12:58:39;;;;;;;22.02;7.28;;;;;;;;;;143731;648;46021;-52
2021/07/31 13:01:06;;;;;;;24.12;7.53;;;;;;;;;;143729;592;46020;-52
2021/07/31 13:03:33;;;;;;;28.23;8.30;;;;;;;;;;143732;676;46010;-52
2021/07/31 13:06:02;;;;;;;19.15;7.68;;;;;;;;;;143728;583;46021;-52
2021/07/31 13:08:29;;;;;;;21.70;7.47;;;;;;;;;;143731;571;46020;-52
2021/07/31 13:10:56;;;;;;;25.88;8.15;;;;;;;;;;143730;569;46022;-53
2021/07/31 13:13:24;;;;;;;19.70;7.80;;;;;;;;;;143728;581;46020;-52
2021/07/31 13:15:51;;;;;;;26.50;7.40;;;;;;;;;;143730;595;46018;-52
2021/07/31 13:18:21;;;;;;;24.02;7.50;;;;;;;;;;143733;639;46012;-52
2021/07/31 13:20:50;;;;;;;18.40;7.55;;;;;;;;;;143730;606;46021;-52
2021/07/31 13:23:17;;;;;;;22.55;8.02;;;;;;;;;;143728;570;46020;-52
2021/07/31 13:25:45;;;;;;;23.87;8.07;;;;;;;;;;143731;579;46018;-53
2021/07/31 13:28:12;;;;;;;20.08;7.57;;;;;;;;;;143733;577;46012;-53
2021/07/31 13:30:39;;;;;;;23.05;6.75;;;;;;;;;;143731;591;46010;-52
2021/07/31 13:33:06;;;;;;;25.42;7.97;;;;;;;;;;143729;595;46010;-52
2021/07/31 13:35:33;;;;;;;15.02;7.35;;;;;;;;;;143728;605;46018;-52
2021/07/31 13:38:00;;;;;;;25.52;7.35;;;;;;;;;;143732;570;46021;-52
2021/07/31 13:40:34;;;;;;;23.48;7.45;;;;;;;;;;143733;638;46020;-52
2021/07/31 13:43:03;;;;;;;28.15;7.65;;;;;;;;;;143730;635;46011;-53
2021/07/31 13:45:30;;;;;;;20.08;7.55;;;;;;;;;;143730;600;46018;-52
2021/07/31 13:47:57;;;;;;;27.92;7.80;;;;;;;;;;143731;565;46020;-52
2021/07/31 13:50:24;;;;;;;20.55;8.00;;;;;;;;;;143731;564;46021;-52
2021/07/31 13:52:51;;;;;;;21.27;7.50;;;;;;;;;;143728;592;46020;-53
2021/07/31 13:55:18;;;;;;;22.60;7.32;;;;;;;;;;143730;590;46018;-52
2021/07/31 13:57:45;;;;;;;24.48;7.10;;;;;;;;;;143733;594;46012;-52
2021/07/31 14:00:12;;;;;;;21.52;6.65;;;;;;;;;;143729;573;46020;-53
2021/07/31 14:02:40;;;;;;;25.77;7.07;;;;;;;;;;143729;577;46010;-52
2021/07/31 14:05:08;;;;;;;29.80;7.22;;;;;;;;;;143730;624;46021;-52
2021/07/31 14:07:35;;;;;;;16.25;7.57;;;;;;;;;;143733;569;46012;-53
2021/07/31 14:10:02;;;;;;;25.20;7.20;;;;;;;;;;143731;617;46020;-53
2021/07/31 14:12:29;;;;;;;24.12;7.82;;;;;;;;;;143728;588;46020;-52
2021/07/31 14:14:56;;;;;;;30.27;8.15;;;;;;;;;;143729;573;46018;-52
2021/07/31 14:17:24;;;;;;;20.27;7.20;;;;;;;;;;143731;590;46012;-52
2021/07/31 14:19:51;;;;;;;22.50;8.05;;;;;;;;;;143732;590;46021;-52
2021/07/31 14:22:18;;;;;;;31.75;7.55;;;;;;;;;;143728;581;46918;-52
2021/07/31 14:24:46;;;;;;;24.65;7.55;;;;;;;;;;143728;564;46020;-52
2021/07/31 14:27:12;;;;;;;18.75;6.32;;;;;;;;;;143732;606;46013;-53
2021/07/31 14:29:40;;;;;;;21.05;7.30;;;;;;;;;;143727;580;47023;-52
2021/07/31 14:32:08;;;;;;;32.67;8.23;;;;;;;;;;143729;618;46010;-52
2021/07/31 14:34:35;;;;;;;24.85;8.18;;;;;;;;;;143730;644;46019;-52